Time;durP1;ratioP1;P1;durP2;ratioP2;P2;SDS_P1;SDS_P2;PMS_P1;PMS_P2;Temp;Humidity;BMP_temperature;BMP_pressure;BME280_temperature;BME280_humidity;BME280_pressure;Samples;Min_cycle;Max_cycle;Signal;HPM_P1;HPM_P2
2021/06/20 00:01:31;;;;;;;11.23;10.23;;;25.80;89.40;;;;;;5098136;28;20510;-70
2021/06/20 00:03:57;;;;;;;12.10;11.00;;;25.80;58.00;;;;;;5097901;28;20457;-70
2021/06/20 00:06:29;;;;;;;11.43;10.43;;;25.80;83.60;;;;;;5097809;28;20917;-70
2021/06/20 00:08:56;;;;;;;11.33;10.23;;;25.70;83.30;;;;;;5098166;28;20782;-70
2021/06/20 00:11:23;;;;;;;11.47;10.40;;;25.70;50.50;;;;;;5098171;28;20476;-70
2021/06/20 00:13:50;;;;;;;11.67;10.57;;;25.70;53.50;;;;;;5098498;28;20752;-70
2021/06/20 00:16:17;;;;;;;13.33;10.33;;;25.70;94.60;;;;;;5098066;28;20463;-71
2021/06/20 00:18:46;;;;;;;10.70;9.53;;;25.70;95.50;;;;;;5098194;28;20801;-70
2021/06/20 00:21:14;;;;;;;11.50;10.50;;;25.70;99.90;;;;;;5097442;28;20461;-70
2021/06/20 00:23:42;;;;;;;10.83;9.97;;;25.60;99.90;;;;;;5098286;28;20781;-70
2021/06/20 00:26:09;;;;;;;12.10;11.00;;;25.60;99.90;;;;;;5097415;28;20481;-70
2021/06/20 00:28:36;;;;;;;11.83;10.83;;;25.60;99.90;;;;;;5097229;28;20484;-70
2021/06/20 00:31:03;;;;;;;11.13;9.97;;;25.60;99.90;;;;;;5097321;28;20510;-70
2021/06/20 00:33:30;;;;;;;11.53;10.33;;;25.60;99.90;;;;;;5097350;28;20465;-70
2021/06/20 00:35:57;;;;;;;10.80;9.70;;;25.50;99.90;;;;;;5097245;28;20458;-70
2021/06/20 00:38:24;;;;;;;12.30;11.20;;;25.50;99.90;;;;;;5097184;28;20895;-70
2021/06/20 00:40:52;;;;;;;13.10;11.80;;;25.40;1.00;;;;;;5097080;28;20479;-70
2021/06/20 00:43:19;;;;;;;18.60;10.30;;;25.40;1.00;;;;;;5096267;28;20453;-70
2021/06/20 00:45:46;;;;;;;13.87;12.50;;;25.40;1.00;;;;;;5096704;28;20453;-70
2021/06/20 00:48:13;;;;;;;11.53;10.63;;;25.40;1.00;;;;;;5096782;28;20831;-70
2021/06/20 00:50:40;;;;;;;12.47;11.27;;;25.30;1.00;;;;;;5096522;28;20463;-70
2021/06/20 00:53:07;;;;;;;12.13;10.87;;;25.30;1.00;;;;;;5097151;28;20458;-70
2021/06/20 00:55:37;;;;;;;12.97;11.70;;;25.30;1.00;;;;;;5097049;28;20457;-70
2021/06/20 00:58:06;;;;;;;12.17;10.40;;;25.20;1.00;;;;;;5096905;28;20552;-70
2021/06/20 01:00:34;;;;;;;12.80;11.50;;;25.20;96.80;;;;;;5096945;28;20481;-70
2021/06/20 01:03:01;;;;;;;11.50;10.50;;;25.20;99.90;;;;;;5096502;28;20514;-69
2021/06/20 01:05:28;;;;;;;12.43;11.23;;;25.20;99.90;;;;;;5097071;28;20469;-70
2021/06/20 01:07:55;;;;;;;12.27;10.97;;;25.20;99.90;;;;;;5096787;28;20461;-70
2021/06/20 01:10:24;;;;;;;14.07;11.60;;;25.20;99.90;;;;;;5096534;28;20449;-70
2021/06/20 01:12:53;;;;;;;14.00;12.53;;;25.10;1.00;;;;;;5096766;28;20531;-70
2021/06/20 01:15:22;;;;;;;13.00;11.73;;;25.10;1.00;;;;;;5096265;28;20572;-70
2021/06/20 01:17:49;;;;;;;12.67;11.37;;;25.00;1.00;;;;;;5097257;28;20774;-70
2021/06/20 01:20:18;;;;;;;12.80;11.57;;;25.00;1.00;;;;;;5096865;28;20807;-70
2021/06/20 01:22:47;;;;;;;18.03;12.17;;;25.00;1.00;;;;;;5096395;28;20457;-70
2021/06/20 01:25:16;;;;;;;14.40;13.00;;;25.00;99.90;;;;;;5096427;28;20730;-70
2021/06/20 01:27:46;;;;;;;16.83;12.20;;;25.00;99.90;;;;;;5096414;28;20468;-70
2021/06/20 01:30:16;;;;;;;12.97;11.77;;;24.90;99.90;;;;;;5096175;28;20783;-70
2021/06/20 01:32:43;;;;;;;13.30;12.03;;;24.90;99.90;;;;;;5096184;28;20468;-70
2021/06/20 01:35:11;;;;;;;15.27;13.03;;;24.80;1.00;;;;;;5096291;28;20803;-70
2021/06/20 01:37:39;;;;;;;14.50;12.70;;;24.80;1.00;;;;;;5096156;28;20457;-71
2021/06/20 01:40:10;;;;;;;14.33;13.00;;;24.80;1.00;;;;;;5096053;28;20487;-71
2021/06/20 01:42:37;;;;;;;13.87;12.63;;;24.70;99.90;;;;;;5096410;28;20780;-70
2021/06/20 01:45:05;;;;;;;15.63;12.80;;;24.70;99.90;;;;;;5096203;28;20453;-70
2021/06/20 01:47:33;;;;;;;13.60;12.40;;;24.60;1.00;;;;;;5095588;28;20977;-70
2021/06/20 01:50:02;;;;;;;14.13;12.63;;;24.60;1.00;;;;;;5096101;28;20512;-70
2021/06/20 01:52:29;;;;;;;14.00;12.73;;;24.60;99.90;;;;;;5095375;28;20916;-70
2021/06/20 01:54:56;;;;;;;14.53;13.17;;;24.50;99.90;;;;;;5095253;28;20464;-71
2021/06/20 01:57:26;;;;;;;16.40;14.27;;;24.50;99.90;;;;;;5095316;28;20461;-71
2021/06/20 01:59:54;;;;;;;14.20;12.80;;;24.50;1.00;;;;;;5095204;28;20969;-70
2021/06/20 02:02:22;;;;;;;15.93;14.53;;;24.40;1.00;;;;;;5095664;28;20461;-70
2021/06/20 02:04:50;;;;;;;15.50;13.97;;;24.40;1.00;;;;;;5095298;28;20902;-71
2021/06/20 02:07:18;;;;;;;15.87;14.07;;;24.40;99.90;;;;;;5095551;28;20461;-70
2021/06/20 02:09:45;;;;;;;16.77;15.17;;;24.40;99.90;;;;;;5095355;28;20450;-71
2021/06/20 02:12:14;;;;;;;15.47;13.77;;;24.30;99.90;;;;;;5095244;28;20453;-71
2021/06/20 02:14:43;;;;;;;15.53;13.77;;;24.30;1.00;;;;;;5095283;28;20453;-70
2021/06/20 02:17:19;;;;;;;16.03;14.43;;;24.30;1.00;;;;;;5095536;28;20783;-70
2021/06/20 02:19:46;;;;;;;15.33;13.93;;;24.30;1.00;;;;;;5095430;28;20758;-70
2021/06/20 02:22:12;;;;;;;16.33;15.00;;;24.20;1.00;;;;;;5095286;28;20461;-70
2021/06/20 02:24:39;;;;;;;16.40;14.80;;;24.20;1.00;;;;;;5095440;28;20523;-70
2021/06/20 02:27:09;;;;;;;16.17;14.47;;;24.20;1.00;;;;;;5095208;28;20515;-70
2021/06/20 02:29:36;;;;;;;14.77;13.27;;;24.20;1.00;;;;;;5095565;28;20459;-70
2021/06/20 02:32:05;;;;;;;18.13;15.00;;;24.20;1.00;;;;;;5095174;28;20479;-70
2021/06/20 02:34:32;;;;;;;16.10;14.17;;;24.20;1.00;;;;;;5095105;28;20458;-70
2021/06/20 02:36:59;;;;;;;15.00;13.70;;;24.20;1.00;;;;;;5094875;28;20469;-70
2021/06/20 02:39:25;;;;;;;16.90;15.40;;;24.20;1.00;;;;;;5095045;28;20477;-70
2021/06/20 02:41:52;;;;;;;15.87;14.17;;;24.30;1.00;;;;;;5095041;28;20561;-70
2021/06/20 02:44:19;;;;;;;15.00;13.70;;;24.30;1.00;;;;;;5094970;28;20461;-70
2021/06/20 02:46:46;;;;;;;17.53;15.57;;;24.30;1.00;;;;;;5094260;28;20941;-70
2021/06/20 02:49:14;;;;;;;16.83;15.23;;;24.30;1.00;;;;;;5095163;28;20464;-70
2021/06/20 02:51:43;;;;;;;17.43;14.60;;;24.30;1.00;;;;;;5094889;28;20480;-70
2021/06/20 02:54:10;;;;;;;16.73;14.50;;;24.30;1.00;;;;;;5095063;28;20576;-70
2021/06/20 02:56:37;;;;;;;15.60;14.30;;;24.30;1.00;;;;;;5094682;28;20780;-71
2021/06/20 02:59:04;;;;;;;15.50;14.10;;;24.30;1.00;;;;;;5094768;28;20468;-70
2021/06/20 03:01:31;;;;;;;15.70;14.20;;;24.30;1.00;;;;;;5094567;28;20437;-71
2021/06/20 03:03:58;;;;;;;17.80;14.07;;;24.30;1.00;;;;;;5094689;28;20464;-70
2021/06/20 03:06:26;;;;;;;17.07;15.27;;;24.30;1.00;;;;;;5094459;28;20461;-70
2021/06/20 03:08:53;;;;;;;16.60;15.10;;;24.30;1.00;;;;;;5095085;28;20457;-70
2021/06/20 03:11:20;;;;;;;15.77;14.17;;;24.30;1.00;;;;;;5095124;28;20460;-70
2021/06/20 03:13:48;;;;;;;15.93;14.60;;;24.30;1.00;;;;;;5094609;28;20464;-70
2021/06/20 03:16:15;;;;;;;16.63;15.00;;;24.30;1.00;;;;;;5094581;28;20468;-70
2021/06/20 03:18:42;;;;;;;16.03;14.43;;;24.30;44.90;;;;;;5094502;28;20782;-70
2021/06/20 03:21:09;;;;;;;15.67;14.43;;;24.30;42.10;;;;;;5094329;28;20488;-70
2021/06/20 03:23:39;;;;;;;16.07;14.60;;;24.30;23.70;;;;;;5094918;28;20468;-71
2021/06/20 03:26:05;;;;;;;16.40;14.73;;;24.30;58.30;;;;;;5094526;28;20454;-70
2021/06/20 03:28:32;;;;;;;16.53;14.77;;;24.30;99.90;;;;;;5094670;28;20485;-70
2021/06/20 03:30:59;;;;;;;15.20;13.90;;;24.30;99.90;;;;;;5094515;28;20454;-70
2021/06/20 03:33:26;;;;;;;16.20;14.70;;;24.40;99.90;;;;;;5094789;28;20457;-70
2021/06/20 03:35:52;;;;;;;17.30;15.70;;;24.40;17.50;;;;;;5094179;28;20942;-71
2021/06/20 03:38:19;;;;;;;17.83;15.70;;;24.40;1.00;;;;;;5094574;28;20823;-70
2021/06/20 03:40:47;;;;;;;17.80;15.40;;;24.50;1.00;;;;;;5094223;28;20798;-70
2021/06/20 03:43:14;;;;;;;16.87;15.43;;;24.50;1.00;;;;;;5095292;28;20898;-70
2021/06/20 03:45:41;;;;;;;15.30;14.10;;;24.50;99.90;;;;;;5094946;28;20449;-70
2021/06/20 03:48:08;;;;;;;16.70;15.03;;;24.60;99.90;;;;;;5093680;28;20477;-70
2021/06/20 03:50:35;;;;;;;16.53;14.93;;;24.60;99.90;;;;;;5094263;28;20916;-70
2021/06/20 03:53:01;;;;;;;17.43;15.93;;;24.70;1.00;;;;;;5094266;28;20532;-71
2021/06/20 03:55:29;;;;;;;15.43;14.00;;;24.70;1.00;;;;;;5094245;28;20453;-70
2021/06/20 03:57:57;;;;;;;16.33;14.93;;;24.70;1.00;;;;;;5094355;28;20472;-71
2021/06/20 04:00:24;;;;;;;14.63;13.33;;;24.70;99.90;;;;;;5094703;28;20481;-71
2021/06/20 04:02:50;;;;;;;15.50;14.10;;;24.80;99.90;;;;;;5094972;28;20467;-70
2021/06/20 04:05:20;;;;;;;15.90;14.30;;;24.80;1.00;;;;;;5094174;28;20457;-71
2021/06/20 04:07:49;;;;;;;15.53;14.13;;;24.90;1.00;;;;;;5094566;28;20539;-70
2021/06/20 04:10:16;;;;;;;16.10;14.70;;;25.00;1.00;;;;;;5094592;28;20457;-70
2021/06/20 04:12:42;;;;;;;15.60;14.10;;;25.00;99.90;;;;;;5094656;28;20449;-70
2021/06/20 04:15:14;;;;;;;14.73;13.17;;;25.10;99.90;;;;;;5094869;28;20469;-71
2021/06/20 04:17:40;;;;;;;15.23;14.00;;;25.10;99.90;;;;;;5094692;28;20437;-70
2021/06/20 04:20:11;;;;;;;15.73;14.40;;;25.20;1.00;;;;;;5097589;28;20477;-70
2021/06/20 04:22:38;;;;;;;15.47;14.17;;;25.20;99.90;;;;;;5098082;28;20502;-69
2021/06/20 04:25:05;;;;;;;14.87;13.47;;;25.30;99.90;;;;;;5097839;28;20781;-71
2021/06/20 04:27:32;;;;;;;15.37;13.97;;;25.30;1.00;;;;;;5097900;28;20453;-71
2021/06/20 04:30:00;;;;;;;15.30;14.03;;;25.40;1.00;;;;;;5097943;28;20453;-70
2021/06/20 04:32:29;;;;;;;14.80;13.43;;;25.50;99.90;;;;;;5097957;28;20468;-70
2021/06/20 04:34:55;;;;;;;15.50;14.10;;;25.60;1.00;;;;;;5098753;28;20795;-70
2021/06/20 04:37:22;;;;;;;15.13;13.73;;;25.70;1.00;;;;;;5098191;28;20457;-70
2021/06/20 04:39:49;;;;;;;15.17;13.97;;;25.70;99.90;;;;;;5097749;28;20937;-69
2021/06/20 04:42:17;;;;;;;15.73;14.37;;;25.80;99.90;;;;;;5097206;28;20914;-70
2021/06/20 04:44:45;;;;;;;16.00;14.47;;;25.90;99.90;;;;;;5098110;28;20479;-70
2021/06/20 04:47:13;;;;;;;15.60;14.07;;;26.00;1.00;;;;;;5097270;28;20491;-69
2021/06/20 04:49:42;;;;;;;16.07;14.67;;;26.10;1.00;;;;;;5097023;28;20583;-69
2021/06/20 04:52:10;;;;;;;15.77;14.47;;;26.20;1.00;;;;;;5096619;28;20898;-71
2021/06/20 04:54:49;;;;;;;16.13;14.60;;;26.30;1.00;;;;;;5096959;28;20461;-71
2021/06/20 04:57:17;;;;;;;16.50;15.00;;;26.30;1.00;;;;;;5097076;28;20482;-71
2021/06/20 04:59:44;;;;;;;16.30;14.90;;;26.40;99.90;;;;;;5097020;28;20788;-70
2021/06/20 05:02:10;;;;;;;17.33;15.80;;;26.50;99.90;;;;;;5096945;28;20461;-69
2021/06/20 05:04:38;;;;;;;16.67;15.17;;;26.50;99.90;;;;;;5097130;28;20463;-69
2021/06/20 05:07:06;;;;;;;17.53;16.03;;;26.60;99.90;;;;;;5096801;28;20917;-70
2021/06/20 05:09:33;;;;;;;16.60;15.27;;;26.70;99.90;;;;;;5096841;28;20468;-70
2021/06/20 05:11:59;;;;;;;17.70;16.20;;;26.70;99.90;;;;;;5096454;28;20449;-71
2021/06/20 05:14:26;;;;;;;16.80;15.50;;;26.80;99.90;;;;;;5096918;28;20461;-70
2021/06/20 05:16:53;;;;;;;18.80;17.20;;;26.80;99.90;;;;;;5096709;28;20465;-70
2021/06/20 05:19:20;;;;;;;17.20;15.80;;;26.90;99.90;;;;;;5096601;28;20461;-70
2021/06/20 05:21:46;;;;;;;18.27;16.57;;;27.00;99.90;;;;;;5096333;28;20973;-70
2021/06/20 05:24:14;;;;;;;17.47;15.97;;;27.00;99.90;;;;;;5096639;28;20453;-71
2021/06/20 05:26:41;;;;;;;18.50;16.90;;;27.00;99.90;;;;;;5097035;28;20971;-70
2021/06/20 05:29:08;;;;;;;19.60;17.90;;;27.00;99.90;;;;;;5096254;28;20468;-70
2021/06/20 05:31:35;;;;;;;19.13;17.43;;;26.90;99.90;;;;;;5096091;28;20902;-70
2021/06/20 05:34:02;;;;;;;18.43;16.80;;;26.90;99.90;;;;;;5096189;28;20461;-70
2021/06/20 05:36:28;;;;;;;17.67;16.37;;;26.90;99.90;;;;;;5096232;28;20457;-70
2021/06/20 05:38:55;;;;;;;18.20;16.77;;;27.00;99.90;;;;;;5095682;28;20461;-69
2021/06/20 05:41:26;;;;;;;19.20;17.47;;;27.00;99.90;;;;;;5095986;28;20587;-70
2021/06/20 05:43:53;;;;;;;18.73;16.90;;;27.10;99.90;;;;;;5095784;28;21006;-69
2021/06/20 05:46:23;;;;;;;19.43;17.83;;;27.10;99.90;;;;;;5095736;28;20532;-70
2021/06/20 05:48:50;;;;;;;18.60;17.10;;;27.20;99.90;;;;;;5096716;28;20910;-70
2021/06/20 05:51:17;;;;;;;18.30;16.80;;;27.20;99.90;;;;;;5096105;28;20790;-70
2021/06/20 05:53:46;;;;;;;18.10;16.67;;;27.30;99.90;;;;;;5096003;28;20953;-70
2021/06/20 05:56:12;;;;;;;18.60;17.03;;;27.40;99.90;;;;;;5096099;28;20458;-70
2021/06/20 05:58:41;;;;;;;17.23;16.03;;;27.50;99.90;;;;;;5096960;28;20460;-70
2021/06/20 06:01:07;;;;;;;19.03;17.47;;;27.60;99.90;;;;;;5096191;28;20626;-70
2021/06/20 06:03:35;;;;;;;18.20;16.60;;;27.60;99.90;;;;;;5095628;28;20460;-70
2021/06/20 06:06:01;;;;;;;18.27;16.77;;;27.80;99.90;;;;;;5095475;28;20482;-70
2021/06/20 06:08:28;;;;;;;20.30;18.60;;;27.80;99.90;;;;;;5095225;28;20457;-70
2021/06/20 06:10:55;;;;;;;17.77;16.10;;;27.90;99.90;;;;;;5095630;28;20766;-70
2021/06/20 06:13:22;;;;;;;18.17;16.77;;;28.00;99.90;;;;;;5095218;28;20453;-70
2021/06/20 06:15:50;;;;;;;19.27;17.47;;;28.10;99.90;;;;;;5095561;28;20457;-70
2021/06/20 06:18:17;;;;;;;18.43;16.90;;;28.10;99.90;;;;;;5095371;28;20453;-70
2021/06/20 06:20:44;;;;;;;19.10;17.20;;;28.20;99.90;;;;;;5095140;28;20967;-70
2021/06/20 06:23:12;;;;;;;18.90;17.07;;;28.20;99.90;;;;;;5096423;28;20453;-70
2021/06/20 06:25:39;;;;;;;18.03;16.60;;;28.30;99.90;;;;;;5095757;28;20916;-70
2021/06/20 06:28:06;;;;;;;18.40;16.80;;;28.40;99.90;;;;;;5095205;28;20453;-69
2021/06/20 06:30:33;;;;;;;18.57;16.73;;;28.50;99.90;;;;;;5095557;28;20466;-69
2021/06/20 06:33:04;;;;;;;19.40;17.50;;;28.60;99.90;;;;;;5095588;28;20468;-71
2021/06/20 06:35:31;;;;;;;19.40;17.70;;;28.70;89.90;;;;;;5095428;28;20836;-70
2021/06/20 06:37:57;;;;;;;18.67;16.93;;;28.90;71.40;;;;;;5095223;28;20454;-70
2021/06/20 06:40:24;;;;;;;18.50;17.00;;;29.00;60.00;;;;;;5094633;28;20450;-70
2021/06/20 06:42:51;;;;;;;19.37;17.57;;;29.20;51.80;;;;;;5094970;28;20909;-70
2021/06/20 06:45:18;;;;;;;19.63;17.80;;;29.30;36.30;;;;;;5095297;28;20453;-70
2021/06/20 06:47:45;;;;;;;19.00;17.30;;;29.30;18.60;;;;;;5094698;28;20477;-70
2021/06/20 06:50:13;;;;;;;20.27;18.77;;;29.40;20.30;;;;;;5095355;28;20464;-70
2021/06/20 06:52:40;;;;;;;19.63;17.73;;;29.40;15.40;;;;;;5095467;28;20457;-70
2021/06/20 06:55:09;;;;;;;18.90;17.40;;;29.40;15.30;;;;;;5095655;28;20456;-70
2021/06/20 06:57:36;;;;;;;20.20;18.60;;;29.40;19.50;;;;;;5095459;28;20483;-70
2021/06/20 07:00:06;;;;;;;18.83;17.33;;;29.50;9.00;;;;;;5095534;28;20480;-71
2021/06/20 07:02:33;;;;;;;19.20;17.50;;;29.40;1.00;;;;;;5096354;28;20507;-70
2021/06/20 07:05:00;;;;;;;18.60;17.10;;;29.50;7.50;;;;;;5096032;28;20453;-71
2021/06/20 07:07:28;;;;;;;18.27;16.87;;;29.50;11.40;;;;;;5095402;28;20457;-71
2021/06/20 07:09:59;;;;;;;19.63;17.93;;;29.60;24.80;;;;;;5095138;28;20476;-70
2021/06/20 07:12:27;;;;;;;20.43;18.17;;;29.70;16.10;;;;;;5095416;28;20882;-70
2021/06/20 07:14:56;;;;;;;20.43;18.83;;;29.80;11.70;;;;;;5095537;28;20468;-70
2021/06/20 07:17:23;;;;;;;18.30;16.93;;;29.90;6.70;;;;;;5095275;28;20819;-70
2021/06/20 07:19:50;;;;;;;20.50;18.77;;;30.00;1.00;;;;;;5095231;28;20468;-70
2021/06/20 07:22:17;;;;;;;20.00;18.13;;;30.10;1.00;;;;;;5095429;28;20473;-71
2021/06/20 07:24:45;;;;;;;19.93;18.40;;;30.20;1.00;;;;;;5095203;28;20538;-69
2021/06/20 07:27:13;;;;;;;20.53;18.80;;;30.20;1.00;;;;;;5095552;28;20461;-70
2021/06/20 07:29:41;;;;;;;19.90;18.30;;;30.30;1.00;;;;;;5095703;28;20457;-70
2021/06/20 07:32:10;;;;;;;20.50;18.90;;;30.40;1.00;;;;;;5094820;28;20491;-71
2021/06/20 07:34:37;;;;;;;19.70;17.90;;;30.50;1.00;;;;;;5094586;28;20453;-70
2021/06/20 07:37:04;;;;;;;20.83;19.07;;;30.60;1.00;;;;;;5094723;28;20461;-70
2021/06/20 07:39:31;;;;;;;20.40;18.80;;;30.70;1.00;;;;;;5094681;28;20464;-71
2021/06/20 07:41:59;;;;;;;20.97;19.37;;;30.80;1.00;;;;;;5094352;28;20473;-69
2021/06/20 07:44:26;;;;;;;21.00;18.97;;;30.90;1.00;;;;;;5094424;28;20457;-70
2021/06/20 07:46:53;;;;;;;21.20;19.53;;;31.00;1.00;;;;;;5094584;28;20477;-70
2021/06/20 07:49:23;;;;;;;20.40;18.77;;;31.10;1.00;;;;;;5094723;28;20464;-71
2021/06/20 07:51:49;;;;;;;20.53;18.93;;;31.20;1.00;;;;;;5095003;28;20476;-71
2021/06/20 07:54:16;;;;;;;21.40;19.60;;;31.20;1.00;;;;;;5098342;28;20777;-70
2021/06/20 07:56:43;;;;;;;23.03;21.13;;;31.30;1.00;;;;;;5098326;28;20472;-70
2021/06/20 07:59:11;;;;;;;21.93;20.03;;;31.30;1.00;;;;;;5098323;28;20453;-70
2021/06/20 08:01:39;;;;;;;23.27;21.27;;;31.30;1.00;;;;;;5098049;28;20484;-71
2021/06/20 08:04:06;;;;;;;19.90;18.50;;;31.30;1.00;;;;;;5098269;28;20457;-72
2021/06/20 08:06:33;;;;;;;21.30;19.43;;;31.30;1.00;;;;;;5098286;28;20467;-70
2021/06/20 08:08:59;;;;;;;20.17;18.27;;;31.30;1.00;;;;;;5098043;28;20914;-70
2021/06/20 08:11:27;;;;;;;20.57;18.90;;;31.30;1.00;;;;;;5098338;28;20453;-71
2021/06/20 08:13:56;;;;;;;20.90;19.20;;;31.30;1.00;;;;;;5098157;28;20472;-71
2021/06/20 08:16:25;;;;;;;21.90;20.00;;;31.40;1.00;;;;;;5098299;28;20464;-71
2021/06/20 08:18:52;;;;;;;22.80;20.93;;;31.40;1.00;;;;;;5098059;28;20535;-71
2021/06/20 08:21:19;;;;;;;23.00;20.90;;;31.50;1.00;;;;;;5098570;28;20488;-70
2021/06/20 08:23:46;;;;;;;22.90;21.00;;;31.50;1.00;;;;;;5098346;28;20569;-70
2021/06/20 08:26:13;;;;;;;24.00;22.10;;;31.50;1.00;;;;;;5098069;28;20956;-69
2021/06/20 08:28:39;;;;;;;21.30;19.60;;;31.50;1.00;;;;;;5097625;28;20457;-70
2021/06/20 08:31:06;;;;;;;21.73;20.03;;;31.60;1.00;;;;;;5097720;28;20464;-72
2021/06/20 08:33:34;;;;;;;20.80;19.30;;;31.60;1.00;;;;;;5097611;28;20461;-69
2021/06/20 08:36:01;;;;;;;20.63;19.03;;;31.60;1.00;;;;;;5097587;28;20567;-70
2021/06/20 08:38:28;;;;;;;23.17;21.27;;;31.70;1.00;;;;;;5097823;28;20878;-70
2021/06/20 08:40:55;;;;;;;22.50;20.20;;;31.70;1.00;;;;;;5097730;28;20457;-70
2021/06/20 08:43:23;;;;;;;21.80;19.90;;;31.80;1.00;;;;;;5097449;28;20464;-70
2021/06/20 08:45:54;;;;;;;21.87;20.07;;;31.90;1.00;;;;;;5097021;28;20457;-70
2021/06/20 08:48:22;;;;;;;22.47;20.77;;;32.00;1.00;;;;;;5097533;28;20469;-69
2021/06/20 08:50:52;;;;;;;21.57;19.77;;;32.00;1.00;;;;;;5097872;28;20461;-70
2021/06/20 08:53:20;;;;;;;22.43;20.83;;;32.00;1.00;;;;;;5097457;28;20449;-70
2021/06/20 08:55:48;;;;;;;21.77;20.07;;;32.10;1.00;;;;;;5097099;28;20469;-71
2021/06/20 08:58:21;;;;;;;20.93;19.37;;;32.10;1.00;;;;;;5097775;28;20738;-72
2021/06/20 09:00:50;;;;;;;20.77;19.27;;;32.20;1.00;;;;;;5097864;28;20522;-72
2021/06/20 09:03:18;;;;;;;21.80;20.10;;;32.30;1.00;;;;;;5097632;28;20479;-71
2021/06/20 09:06:00;;;;;;;20.70;19.20;;;32.40;1.00;;;;;;5096974;28;20547;-71
2021/06/20 09:08:28;;;;;;;21.63;20.03;;;32.40;1.00;;;;;;5098234;28;20760;-71
2021/06/20 09:10:55;;;;;;;20.33;18.83;;;32.50;1.00;;;;;;5097364;28;20461;-70
2021/06/20 09:13:23;;;;;;;19.40;18.03;;;32.40;1.00;;;;;;5097928;28;20552;-70
2021/06/20 09:16:00;;;;;;;18.53;17.23;;;32.40;1.00;;;;;;5096971;28;20457;-71
2021/06/20 09:18:29;;;;;;;15.87;14.57;;;32.50;1.00;;;;;;5096913;28;20886;-70
2021/06/20 09:20:58;;;;;;;17.10;15.90;;;32.40;1.00;;;;;;5096928;28;20457;-70
2021/06/20 09:23:26;;;;;;;16.00;14.70;;;32.30;1.00;;;;;;5098694;28;20477;-70
2021/06/20 09:25:59;;;;;;;14.37;13.07;;;32.30;1.00;;;;;;5099985;28;20457;-72
2021/06/20 09:28:33;;;;;;;13.47;12.37;;;32.30;1.00;;;;;;5097784;28;20470;-72
2021/06/20 09:31:02;;;;;;;16.47;12.57;;;32.20;1.00;;;;;;5098085;28;20875;-71
2021/06/20 09:33:30;;;;;;;12.90;11.80;;;32.30;1.00;;;;;;5099010;28;20449;-69
2021/06/20 09:35:58;;;;;;;13.10;12.10;;;32.40;1.00;;;;;;5098843;28;20453;-71
2021/06/20 09:38:27;;;;;;;12.53;11.13;;;32.50;1.00;;;;;;5098923;28;20461;-71
2021/06/20 09:41:02;;;;;;;11.60;10.70;;;32.60;1.00;;;;;;5098212;28;20449;-70
2021/06/20 09:43:29;;;;;;;13.70;11.40;;;32.60;1.00;;;;;;5098007;28;20500;-71
2021/06/20 09:45:56;;;;;;;13.40;10.57;;;32.60;1.00;;;;;;5097960;28;20453;-70
2021/06/20 09:48:24;;;;;;;11.33;10.30;;;32.60;1.00;;;;;;5097048;28;20783;-70
2021/06/20 09:50:51;;;;;;;14.00;10.70;;;32.50;1.00;;;;;;5096562;28;20457;-70
2021/06/20 09:53:31;;;;;;;14.37;12.50;;;32.50;1.00;;;;;;5098075;28;20449;-70
2021/06/20 09:56:20;;;;;;;15.63;11.20;;;32.40;1.00;;;;;;5096155;28;20885;-71
2021/06/20 09:58:55;;;;;;;10.77;9.87;;;32.40;1.00;;;;;;5096135;28;20437;-69
2021/06/20 10:01:24;;;;;;;12.30;11.17;;;32.30;1.00;;;;;;5096184;28;20448;-71
2021/06/20 10:03:51;;;;;;;12.20;11.07;;;32.30;1.00;;;;;;5096428;28;20454;-71
2021/06/20 10:06:18;;;;;;;12.20;10.90;;;32.10;1.00;;;;;;5097129;28;20556;-70
2021/06/20 10:08:45;;;;;;;13.60;12.30;;;32.10;1.00;;;;;;5097445;28;20992;-70
2021/06/20 10:11:17;;;;;;;11.93;10.77;;;32.10;1.00;;;;;;5096060;28;20453;-69
2021/06/20 10:13:45;;;;;;;12.60;11.27;;;32.10;1.00;;;;;;5096844;28;20449;-69
2021/06/20 10:16:17;;;;;;;11.87;10.83;;;32.20;1.00;;;;;;5095560;28;20770;-71
2021/06/20 10:18:49;;;;;;;11.00;9.97;;;32.20;1.00;;;;;;5096385;28;20468;-71
2021/06/20 10:21:27;;;;;;;12.30;11.10;;;32.30;1.00;;;;;;5096785;28;20438;-71
2021/06/20 10:24:06;;;;;;;13.60;11.20;;;32.30;1.00;;;;;;5100237;28;20444;-71
2021/06/20 10:26:34;;;;;;;11.80;10.63;;;32.30;1.00;;;;;;5097895;28;20448;-70
2021/06/20 10:29:15;;;;;;;12.10;11.10;;;32.30;1.00;;;;;;5098123;28;20458;-70
2021/06/20 10:31:41;;;;;;;17.27;11.67;;;32.40;1.00;;;;;;5097027;28;20442;-70
2021/06/20 10:34:22;;;;;;;12.17;10.87;;;32.40;1.00;;;;;;5097730;28;20457;-71
2021/06/20 10:36:51;;;;;;;11.87;10.70;;;32.40;1.00;;;;;;5098284;28;20789;-70
2021/06/20 10:39:17;;;;;;;12.07;11.03;;;32.30;1.00;;;;;;5096526;28;20457;-70
2021/06/20 10:41:46;;;;;;;11.30;10.30;;;32.40;1.00;;;;;;5095876;28;20457;-70
2021/06/20 10:44:13;;;;;;;12.20;11.20;;;32.40;1.00;;;;;;5097364;28;20467;-70
2021/06/20 10:46:42;;;;;;;18.40;12.50;;;32.50;1.00;;;;;;5102290;28;20477;-70
2021/06/20 10:49:17;;;;;;;15.03;11.40;;;32.60;1.00;;;;;;5102175;28;20453;-71
2021/06/20 10:51:44;;;;;;;21.63;12.40;;;32.70;1.00;;;;;;5100193;28;20468;-71
2021/06/20 10:54:25;;;;;;;13.37;11.57;;;32.70;1.00;;;;;;5101341;28;20468;-70
2021/06/20 10:57:01;;;;;;;14.33;11.40;;;32.70;1.00;;;;;;5101340;28;20553;-72
2021/06/20 10:59:28;;;;;;;12.53;11.00;;;32.80;1.00;;;;;;5102072;28;20449;-70
2021/06/20 11:01:55;;;;;;;19.70;11.73;;;32.80;1.00;;;;;;5104546;28;20964;-70
2021/06/20 11:04:22;;;;;;;15.53;11.53;;;32.90;1.00;;;;;;5102664;28;20457;-70
2021/06/20 11:06:53;;;;;;;16.00;11.77;;;33.10;1.00;;;;;;5101644;28;20507;-70
2021/06/20 11:09:22;;;;;;;13.00;11.70;;;33.20;1.00;;;;;;5101975;28;20453;-70
2021/06/20 11:11:51;;;;;;;14.90;12.47;;;33.30;1.00;;;;;;5100925;28;20787;-71
2021/06/20 11:14:20;;;;;;;13.27;11.70;;;33.40;1.00;;;;;;5101179;28;20510;-71
2021/06/20 11:16:48;;;;;;;15.47;10.70;;;33.50;1.00;;;;;;5098825;28;20458;-71
2021/06/20 11:19:17;;;;;;;12.30;10.17;;;33.60;1.00;;;;;;5097728;28;20461;-71
2021/06/20 11:21:50;;;;;;;12.23;10.00;;;33.70;1.00;;;;;;5115948;28;20464;-71
2021/06/20 11:24:18;;;;;;;14.43;9.60;;;34.00;1.00;;;;;;5117430;28;20475;-71
2021/06/20 11:26:53;;;;;;;21.33;10.17;;;34.10;1.00;;;;;;5118619;28;20768;-71
2021/06/20 11:29:22;;;;;;;19.67;8.80;;;34.20;1.00;;;;;;5120990;28;20547;-71
2021/06/20 11:31:51;;;;;;;19.40;8.90;;;34.50;1.00;;;;;;5121865;28;20535;-70
2021/06/20 11:34:18;;;;;;;15.03;8.67;;;35.00;1.00;;;;;;5122335;28;20459;-71
2021/06/20 11:36:44;;;;;;;13.50;8.40;;;35.50;1.00;;;;;;5124143;28;20538;-71
2021/06/20 11:39:13;;;;;;;15.47;8.73;;;35.90;1.00;;;;;;5122940;28;20448;-72
2021/06/20 11:41:42;;;;;;;11.70;8.50;;;35.80;1.00;;;;;;5124624;28;20551;-71
2021/06/20 11:44:09;;;;;;;17.20;8.90;;;35.90;1.00;;;;;;5124543;28;20499;-70
2021/06/20 11:46:41;;;;;;;20.93;8.07;;;36.30;1.00;;;;;;5123193;28;20480;-71
2021/06/20 11:49:10;;;;;;;12.47;8.67;;;36.60;1.00;;;;;;5122616;28;20436;-70
2021/06/20 11:51:39;;;;;;;12.53;8.60;;;36.70;1.00;;;;;;5121868;28;20464;-70
2021/06/20 11:54:12;;;;;;;17.73;9.10;;;36.90;1.00;;;;;;5122462;28;20528;-72
2021/06/20 11:56:39;;;;;;;15.17;8.37;;;37.00;1.00;;;;;;5121260;28;20800;-70
2021/06/20 11:59:07;;;;;;;16.73;9.20;;;37.40;1.00;;;;;;5121949;28;20456;-71
2021/06/20 12:01:47;;;;;;;13.47;8.40;;;37.50;1.00;;;;;;5121843;28;20935;-71
2021/06/20 12:04:16;;;;;;;12.40;7.50;;;37.10;1.00;;;;;;5121346;28;20546;-71
2021/06/20 12:06:43;;;;;;;12.10;7.70;;;36.70;1.00;;;;;;5121729;28;20745;-70
2021/06/20 12:09:11;;;;;;;13.67;7.30;;;36.60;1.00;;;;;;5122929;28;20448;-70
2021/06/20 12:11:41;;;;;;;13.67;7.70;;;36.20;1.00;;;;;;5123850;28;20535;-70
2021/06/20 12:14:22;;;;;;;13.27;8.20;;;36.00;1.00;;;;;;5122534;28;20472;-71
2021/06/20 12:16:54;;;;;;;24.13;8.30;;;35.90;1.00;;;;;;5121684;28;20428;-71
2021/06/20 12:19:23;;;;;;;13.23;7.40;;;35.60;1.00;;;;;;5122152;28;20454;-70
2021/06/20 12:21:51;;;;;;;10.10;7.50;;;35.30;1.00;;;;;;5122223;28;20448;-70
2021/06/20 12:24:18;;;;;;;10.97;7.57;;;35.40;1.00;;;;;;5122429;28;20476;-70
2021/06/20 12:26:52;;;;;;;10.30;7.33;;;35.70;1.00;;;;;;5122348;28;20916;-71
2021/06/20 12:29:20;;;;;;;12.60;7.60;;;36.00;1.00;;;;;;5122682;28;20758;-70
2021/06/20 12:31:59;;;;;;;14.03;8.00;;;36.00;1.00;;;;;;5122347;28;20452;-70
2021/06/20 12:34:27;;;;;;;12.83;7.80;;;36.40;1.00;;;;;;5121607;28;20916;-71
2021/06/20 12:37:01;;;;;;;10.60;7.20;;;36.60;1.00;;;;;;5121343;28;20460;-71
2021/06/20 12:39:40;;;;;;;10.37;8.07;;;36.80;1.00;;;;;;5119879;28;20452;-70
2021/06/20 12:42:07;;;;;;;9.03;8.10;;;36.70;1.00;;;;;;5120509;28;20460;-71